sensor_id;sensor_type;location;lat;lon;timestamp;temperature;humidity
31661;DHT22;18267;52.234;7.444;2023-07-13T00:00:41;18.20;99.90
31661;DHT22;18267;52.234;7.444;2023-07-13T00:03:07;18.20;99.90
31661;DHT22;18267;52.234;7.444;2023-07-13T00:05:32;18.20;99.90
31661;DHT22;18267;52.234;7.444;2023-07-13T00:07:58;18.20;99.90
31661;DHT22;18267;52.234;7.444;2023-07-13T00:10:23;18.20;99.90
31661;DHT22;18267;52.234;7.444;2023-07-13T00:12:49;18.20;99.90
31661;DHT22;18267;52.234;7.444;2023-07-13T00:15:20;18.30;99.90
31661;DHT22;18267;52.234;7.444;2023-07-13T00:17:52;18.10;99.90
31661;DHT22;18267;52.234;7.444;2023-07-13T00:20:18;18.10;99.90
31661;DHT22;18267;52.234;7.444;2023-07-13T00:22:47;17.90;99.90
31661;DHT22;18267;52.234;7.444;2023-07-13T00:25:13;18.00;99.90
31661;DHT22;18267;52.234;7.444;2023-07-13T00:27:39;18.10;99.90
31661;DHT22;18267;52.234;7.444;2023-07-13T00:30:05;18.10;99.90
31661;DHT22;18267;52.234;7.444;2023-07-13T00:32:32;18.10;99.90
31661;DHT22;18267;52.234;7.444;2023-07-13T00:34:57;18.10;99.90
31661;DHT22;18267;52.234;7.444;2023-07-13T00:37:25;18.10;99.90
31661;DHT22;18267;52.234;7.444;2023-07-13T00:39:51;18.20;99.90
31661;DHT22;18267;52.234;7.444;2023-07-13T00:42:16;18.10;99.90
31661;DHT22;18267;52.234;7.444;2023-07-13T00:45:01;18.10;99.90
31661;DHT22;18267;52.234;7.444;2023-07-13T00:47:26;18.10;99.90
31661;DHT22;18267;52.234;7.444;2023-07-13T00:49:53;18.10;99.90
31661;DHT22;18267;52.234;7.444;2023-07-13T00:52:19;18.10;99.90
31661;DHT22;18267;52.234;7.444;2023-07-13T00:54:46;18.10;99.90
31661;DHT22;18267;52.234;7.444;2023-07-13T00:57:16;18.10;99.90
31661;DHT22;18267;52.234;7.444;2023-07-13T00:59:46;18.00;99.90
31661;DHT22;18267;52.234;7.444;2023-07-13T01:02:12;18.00;99.90
31661;DHT22;18267;52.234;7.444;2023-07-13T01:04:38;18.00;99.90
31661;DHT22;18267;52.234;7.444;2023-07-13T01:07:05;17.80;99.90
31661;DHT22;18267;52.234;7.444;2023-07-13T01:09:31;17.80;99.90
31661;DHT22;18267;52.234;7.444;2023-07-13T01:11:57;17.80;99.90
31661;DHT22;18267;52.234;7.444;2023-07-13T01:14:23;17.90;99.90
31661;DHT22;18267;52.234;7.444;2023-07-13T01:16:50;17.80;99.90
31661;DHT22;18267;52.234;7.444;2023-07-13T01:19:41;17.70;99.90
31661;DHT22;18267;52.234;7.444;2023-07-13T01:22:16;17.70;99.90
31661;DHT22;18267;52.234;7.444;2023-07-13T01:24:44;17.60;99.90
31661;DHT22;18267;52.234;7.444;2023-07-13T01:27:13;17.70;99.90
31661;DHT22;18267;52.234;7.444;2023-07-13T01:29:40;17.70;99.90
31661;DHT22;18267;52.234;7.444;2023-07-13T01:32:11;17.80;99.90
31661;DHT22;18267;52.234;7.444;2023-07-13T01:34:37;17.80;99.90
31661;DHT22;18267;52.234;7.444;2023-07-13T01:37:05;17.90;99.90
31661;DHT22;18267;52.234;7.444;2023-07-13T01:39:30;17.90;99.90
31661;DHT22;18267;52.234;7.444;2023-07-13T01:41:57;17.80;99.90
31661;DHT22;18267;52.234;7.444;2023-07-13T01:44:22;17.80;99.90
31661;DHT22;18267;52.234;7.444;2023-07-13T01:46:48;17.70;99.90
31661;DHT22;18267;52.234;7.444;2023-07-13T01:49:14;17.70;99.90
31661;DHT22;18267;52.234;7.444;2023-07-13T01:51:39;17.70;99.90
31661;DHT22;18267;52.234;7.444;2023-07-13T01:54:05;17.60;99.90
31661;DHT22;18267;52.234;7.444;2023-07-13T01:56:31;17.60;99.90
31661;DHT22;18267;52.234;7.444;2023-07-13T01:58:57;17.60;99.90
31661;DHT22;18267;52.234;7.444;2023-07-13T02:01:23;17.60;99.90
31661;DHT22;18267;52.234;7.444;2023-07-13T02:03:48;17.60;99.90
31661;DHT22;18267;52.234;7.444;2023-07-13T02:06:14;17.50;99.90
31661;DHT22;18267;52.234;7.444;2023-07-13T02:08:40;17.50;99.90
31661;DHT22;18267;52.234;7.444;2023-07-13T02:11:07;17.50;99.90
31661;DHT22;18267;52.234;7.444;2023-07-13T02:13:32;17.40;99.90
31661;DHT22;18267;52.234;7.444;2023-07-13T02:15:58;17.40;99.90
31661;DHT22;18267;52.234;7.444;2023-07-13T02:18:23;17.30;99.90
31661;DHT22;18267;52.234;7.444;2023-07-13T02:20:49;17.30;99.90
31661;DHT22;18267;52.234;7.444;2023-07-13T02:23:14;17.10;99.90
31661;DHT22;18267;52.234;7.444;2023-07-13T02:25:40;17.00;99.90
31661;DHT22;18267;52.234;7.444;2023-07-13T02:28:06;17.10;99.90
31661;DHT22;18267;52.234;7.444;2023-07-13T02:30:32;17.00;99.90
31661;DHT22;18267;52.234;7.444;2023-07-13T02:32:58;17.10;99.90
31661;DHT22;18267;52.234;7.444;2023-07-13T02:35:23;17.10;99.90
31661;DHT22;18267;52.234;7.444;2023-07-13T02:37:49;17.10;99.90
31661;DHT22;18267;52.234;7.444;2023-07-13T02:40:14;17.10;99.90
31661;DHT22;18267;52.234;7.444;2023-07-13T02:42:41;17.10;99.90
31661;DHT22;18267;52.234;7.444;2023-07-13T02:45:08;17.10;99.90
31661;DHT22;18267;52.234;7.444;2023-07-13T02:47:34;17.20;99.90
31661;DHT22;18267;52.234;7.444;2023-07-13T02:50:00;17.20;99.90
31661;DHT22;18267;52.234;7.444;2023-07-13T02:52:26;17.10;99.90
31661;DHT22;18267;52.234;7.444;2023-07-13T02:54:52;17.10;99.90
31661;DHT22;18267;52.234;7.444;2023-07-13T02:57:17;17.20;99.90
31661;DHT22;18267;52.234;7.444;2023-07-13T02:59:43;17.20;99.90
31661;DHT22;18267;52.234;7.444;2023-07-13T03:02:09;17.20;99.90
31661;DHT22;18267;52.234;7.444;2023-07-13T03:04:36;17.20;99.90
31661;DHT22;18267;52.234;7.444;2023-07-13T03:07:02;17.10;99.90
31661;DHT22;18267;52.234;7.444;2023-07-13T03:09:29;17.00;99.90
31661;DHT22;18267;52.234;7.444;2023-07-13T03:11:55;17.00;99.90
31661;DHT22;18267;52.234;7.444;2023-07-13T03:14:22;17.10;99.90
31661;DHT22;18267;52.234;7.444;2023-07-13T03:16:48;17.10;99.90
31661;DHT22;18267;52.234;7.444;2023-07-13T03:19:14;17.20;99.90
31661;DHT22;18267;52.234;7.444;2023-07-13T03:21:39;17.20;99.90
31661;DHT22;18267;52.234;7.444;2023-07-13T03:24:07;17.20;99.90
31661;DHT22;18267;52.234;7.444;2023-07-13T03:26:32;17.20;99.90
31661;DHT22;18267;52.234;7.444;2023-07-13T03:28:58;17.10;99.90
31661;DHT22;18267;52.234;7.444;2023-07-13T03:31:29;17.10;99.90
31661;DHT22;18267;52.234;7.444;2023-07-13T03:33:55;17.00;99.90
31661;DHT22;18267;52.234;7.444;2023-07-13T03:36:25;17.00;99.90
31661;DHT22;18267;52.234;7.444;2023-07-13T03:38:58;17.10;99.90
31661;DHT22;18267;52.234;7.444;2023-07-13T03:41:25;17.00;99.90
31661;DHT22;18267;52.234;7.444;2023-07-13T03:43:51;16.90;99.90
31661;DHT22;18267;52.234;7.444;2023-07-13T03:46:17;16.80;99.90
31661;DHT22;18267;52.234;7.444;2023-07-13T03:48:45;16.80;99.90
31661;DHT22;18267;52.234;7.444;2023-07-13T03:51:11;16.70;99.90
31661;DHT22;18267;52.234;7.444;2023-07-13T03:53:40;16.80;99.90
31661;DHT22;18267;52.234;7.444;2023-07-13T03:56:07;16.90;99.90
31661;DHT22;18267;52.234;7.444;2023-07-13T03:58:35;17.00;99.90
31661;DHT22;18267;52.234;7.444;2023-07-13T04:01:02;17.10;99.90
31661;DHT22;18267;52.234;7.444;2023-07-13T04:03:28;17.10;99.90
31661;DHT22;18267;52.234;7.444;2023-07-13T04:05:55;17.00;99.90
31661;DHT22;18267;52.234;7.444;2023-07-13T04:08:25;17.00;99.90
31661;DHT22;18267;52.234;7.444;2023-07-13T04:10:51;17.20;99.90
31661;DHT22;18267;52.234;7.444;2023-07-13T04:13:18;17.30;99.90
31661;DHT22;18267;52.234;7.444;2023-07-13T04:15:43;17.30;99.90
31661;DHT22;18267;52.234;7.444;2023-07-13T04:18:09;17.50;99.90
31661;DHT22;18267;52.234;7.444;2023-07-13T04:20:34;17.60;99.90
31661;DHT22;18267;52.234;7.444;2023-07-13T04:23:00;17.60;99.90
31661;DHT22;18267;52.234;7.444;2023-07-13T04:25:27;17.70;99.90
31661;DHT22;18267;52.234;7.444;2023-07-13T04:27:53;17.70;99.90
31661;DHT22;18267;52.234;7.444;2023-07-13T04:30:19;17.70;99.90
31661;DHT22;18267;52.234;7.444;2023-07-13T04:32:46;17.70;99.90
31661;DHT22;18267;52.234;7.444;2023-07-13T04:35:12;17.60;99.90
31661;DHT22;18267;52.234;7.444;2023-07-13T04:37:39;17.60;99.90
31661;DHT22;18267;52.234;7.444;2023-07-13T04:40:06;17.60;99.90
31661;DHT22;18267;52.234;7.444;2023-07-13T04:42:36;17.50;99.90
31661;DHT22;18267;52.234;7.444;2023-07-13T04:45:02;17.60;99.90
31661;DHT22;18267;52.234;7.444;2023-07-13T04:47:30;17.60;99.90
31661;DHT22;18267;52.234;7.444;2023-07-13T04:49:56;17.70;99.90
31661;DHT22;18267;52.234;7.444;2023-07-13T04:52:23;17.80;99.90
31661;DHT22;18267;52.234;7.444;2023-07-13T04:54:49;17.90;99.90
31661;DHT22;18267;52.234;7.444;2023-07-13T04:57:14;17.90;99.90
31661;DHT22;18267;52.234;7.444;2023-07-13T04:59:40;18.00;99.90
31661;DHT22;18267;52.234;7.444;2023-07-13T05:02:05;18.00;99.90
31661;DHT22;18267;52.234;7.444;2023-07-13T05:04:31;18.00;99.90
31661;DHT22;18267;52.234;7.444;2023-07-13T05:06:57;18.00;99.90
31661;DHT22;18267;52.234;7.444;2023-07-13T05:09:22;18.00;99.90
31661;DHT22;18267;52.234;7.444;2023-07-13T05:11:48;18.20;99.90
31661;DHT22;18267;52.234;7.444;2023-07-13T05:14:14;18.30;99.90
31661;DHT22;18267;52.234;7.444;2023-07-13T05:16:40;18.50;99.90
31661;DHT22;18267;52.234;7.444;2023-07-13T05:19:19;18.50;99.90
31661;DHT22;18267;52.234;7.444;2023-07-13T05:21:45;18.40;99.90
31661;DHT22;18267;52.234;7.444;2023-07-13T05:24:11;18.30;99.90
31661;DHT22;18267;52.234;7.444;2023-07-13T05:26:37;18.30;99.90
31661;DHT22;18267;52.234;7.444;2023-07-13T05:29:04;18.30;99.90
31661;DHT22;18267;52.234;7.444;2023-07-13T05:31:29;18.40;99.90
31661;DHT22;18267;52.234;7.444;2023-07-13T05:34:01;18.40;99.90
31661;DHT22;18267;52.234;7.444;2023-07-13T05:36:27;18.30;99.90
31661;DHT22;18267;52.234;7.444;2023-07-13T05:38:53;18.40;99.90
31661;DHT22;18267;52.234;7.444;2023-07-13T05:41:19;18.50;99.90
31661;DHT22;18267;52.234;7.444;2023-07-13T05:43:45;18.50;99.90
31661;DHT22;18267;52.234;7.444;2023-07-13T05:46:10;18.50;99.90
31661;DHT22;18267;52.234;7.444;2023-07-13T05:48:36;18.60;99.90
31661;DHT22;18267;52.234;7.444;2023-07-13T05:51:10;18.60;99.90
31661;DHT22;18267;52.234;7.444;2023-07-13T05:53:36;18.70;99.90
31661;DHT22;18267;52.234;7.444;2023-07-13T05:56:01;18.80;99.90
31661;DHT22;18267;52.234;7.444;2023-07-13T05:58:34;18.70;99.90
31661;DHT22;18267;52.234;7.444;2023-07-13T06:01:06;18.80;99.90
31661;DHT22;18267;52.234;7.444;2023-07-13T06:03:32;18.80;99.90
31661;DHT22;18267;52.234;7.444;2023-07-13T06:05:58;18.90;99.90
31661;DHT22;18267;52.234;7.444;2023-07-13T06:08:26;18.90;99.90
31661;DHT22;18267;52.234;7.444;2023-07-13T06:10:52;19.00;99.90
31661;DHT22;18267;52.234;7.444;2023-07-13T06:13:37;19.00;99.90
31661;DHT22;18267;52.234;7.444;2023-07-13T06:16:03;19.00;99.90
31661;DHT22;18267;52.234;7.444;2023-07-13T06:18:30;19.00;99.90
31661;DHT22;18267;52.234;7.444;2023-07-13T06:20:56;19.00;99.90
31661;DHT22;18267;52.234;7.444;2023-07-13T06:23:22;18.90;99.90
31661;DHT22;18267;52.234;7.444;2023-07-13T06:25:50;18.90;99.90
31661;DHT22;18267;52.234;7.444;2023-07-13T06:28:15;19.00;99.90
31661;DHT22;18267;52.234;7.444;2023-07-13T06:30:41;19.00;99.90
31661;DHT22;18267;52.234;7.444;2023-07-13T06:33:06;19.00;99.90
31661;DHT22;18267;52.234;7.444;2023-07-13T06:35:32;19.10;99.90
31661;DHT22;18267;52.234;7.444;2023-07-13T06:37:59;19.20;99.90
31661;DHT22;18267;52.234;7.444;2023-07-13T06:40:24;19.20;99.90
31661;DHT22;18267;52.234;7.444;2023-07-13T06:42:50;19.40;99.90
31661;DHT22;18267;52.234;7.444;2023-07-13T06:45:17;19.50;99.90
31661;DHT22;18267;52.234;7.444;2023-07-13T06:47:43;19.60;99.90
31661;DHT22;18267;52.234;7.444;2023-07-13T06:50:09;19.40;99.90
31661;DHT22;18267;52.234;7.444;2023-07-13T06:52:35;19.50;99.90
31661;DHT22;18267;52.234;7.444;2023-07-13T06:55:01;19.60;99.90
31661;DHT22;18267;52.234;7.444;2023-07-13T06:57:28;19.50;99.90
31661;DHT22;18267;52.234;7.444;2023-07-13T06:59:53;19.60;99.90
31661;DHT22;18267;52.234;7.444;2023-07-13T07:02:19;19.60;99.90
31661;DHT22;18267;52.234;7.444;2023-07-13T07:04:44;19.80;99.90
31661;DHT22;18267;52.234;7.444;2023-07-13T07:07:10;19.90;99.90
31661;DHT22;18267;52.234;7.444;2023-07-13T07:09:35;19.90;99.90
31661;DHT22;18267;52.234;7.444;2023-07-13T07:12:02;20.00;99.90
31661;DHT22;18267;52.234;7.444;2023-07-13T07:14:28;20.00;99.90
31661;DHT22;18267;52.234;7.444;2023-07-13T07:16:53;20.10;99.90
31661;DHT22;18267;52.234;7.444;2023-07-13T07:19:19;20.20;99.90
31661;DHT22;18267;52.234;7.444;2023-07-13T07:21:45;20.20;99.90
31661;DHT22;18267;52.234;7.444;2023-07-13T07:24:10;20.20;99.90
31661;DHT22;18267;52.234;7.444;2023-07-13T07:26:36;20.30;99.90
31661;DHT22;18267;52.234;7.444;2023-07-13T07:29:02;20.40;99.90
31661;DHT22;18267;52.234;7.444;2023-07-13T07:31:31;20.50;99.90
31661;DHT22;18267;52.234;7.444;2023-07-13T07:33:57;20.60;99.90
31661;DHT22;18267;52.234;7.444;2023-07-13T07:36:23;20.70;99.90
31661;DHT22;18267;52.234;7.444;2023-07-13T07:38:48;20.70;99.90
31661;DHT22;18267;52.234;7.444;2023-07-13T07:41:14;20.80;99.90
31661;DHT22;18267;52.234;7.444;2023-07-13T07:43:40;20.70;99.90
31661;DHT22;18267;52.234;7.444;2023-07-13T07:46:05;20.70;99.90
31661;DHT22;18267;52.234;7.444;2023-07-13T07:48:32;20.70;99.90
31661;DHT22;18267;52.234;7.444;2023-07-13T07:50:58;20.70;99.90
31661;DHT22;18267;52.234;7.444;2023-07-13T07:53:24;20.70;99.90
31661;DHT22;18267;52.234;7.444;2023-07-13T07:55:50;20.70;99.90
31661;DHT22;18267;52.234;7.444;2023-07-13T07:58:17;20.70;99.90
31661;DHT22;18267;52.234;7.444;2023-07-13T08:00:43;20.70;99.90
31661;DHT22;18267;52.234;7.444;2023-07-13T08:03:10;20.60;99.90
31661;DHT22;18267;52.234;7.444;2023-07-13T08:05:36;20.70;99.90
31661;DHT22;18267;52.234;7.444;2023-07-13T08:08:04;20.70;99.90
31661;DHT22;18267;52.234;7.444;2023-07-13T08:10:30;20.90;99.90
31661;DHT22;18267;52.234;7.444;2023-07-13T08:13:02;20.90;99.90
31661;DHT22;18267;52.234;7.444;2023-07-13T08:15:28;21.00;99.90
31661;DHT22;18267;52.234;7.444;2023-07-13T08:17:53;20.80;99.90
31661;DHT22;18267;52.234;7.444;2023-07-13T08:20:21;20.80;99.90
31661;DHT22;18267;52.234;7.444;2023-07-13T08:22:46;20.70;99.90
31661;DHT22;18267;52.234;7.444;2023-07-13T08:25:12;20.60;99.90
31661;DHT22;18267;52.234;7.444;2023-07-13T08:27:38;20.70;99.90
31661;DHT22;18267;52.234;7.444;2023-07-13T08:30:03;20.80;99.90
31661;DHT22;18267;52.234;7.444;2023-07-13T08:32:31;20.80;99.90
31661;DHT22;18267;52.234;7.444;2023-07-13T08:35:05;20.80;99.90
31661;DHT22;18267;52.234;7.444;2023-07-13T08:37:31;20.80;99.90
31661;DHT22;18267;52.234;7.444;2023-07-13T08:39:57;20.90;99.90
31661;DHT22;18267;52.234;7.444;2023-07-13T08:42:46;21.00;99.90
31661;DHT22;18267;52.234;7.444;2023-07-13T08:48:03;21.30;99.90
31661;DHT22;18267;52.234;7.444;2023-07-13T08:50:37;21.30;99.90
31661;DHT22;18267;52.234;7.444;2023-07-13T08:53:04;21.20;99.90
31661;DHT22;18267;52.234;7.444;2023-07-13T08:55:31;21.20;99.90
31661;DHT22;18267;52.234;7.444;2023-07-13T08:58:11;21.30;99.90
31661;DHT22;18267;52.234;7.444;2023-07-13T09:03:57;21.50;99.90
31661;DHT22;18267;52.234;7.444;2023-07-13T09:06:34;21.50;99.90
31661;DHT22;18267;52.234;7.444;2023-07-13T09:09:09;21.50;99.90
31661;DHT22;18267;52.234;7.444;2023-07-13T09:12:00;21.30;99.90
31661;DHT22;18267;52.234;7.444;2023-07-13T09:14:49;21.10;99.90
31661;DHT22;18267;52.234;7.444;2023-07-13T09:17:22;21.20;99.90
31661;DHT22;18267;52.234;7.444;2023-07-13T09:20:27;21.10;99.90
31661;DHT22;18267;52.234;7.444;2023-07-13T09:22:45;21.20;99.90
31661;DHT22;18267;52.234;7.444;2023-07-13T09:25:30;21.10;99.90
31661;DHT22;18267;52.234;7.444;2023-07-13T09:28:11;21.10;99.90
31661;DHT22;18267;52.234;7.444;2023-07-13T09:30:56;21.30;99.90
31661;DHT22;18267;52.234;7.444;2023-07-13T09:33:23;21.40;99.90
31661;DHT22;18267;52.234;7.444;2023-07-13T09:35:50;21.50;99.90
31661;DHT22;18267;52.234;7.444;2023-07-13T09:38:19;21.70;99.90
31661;DHT22;18267;52.234;7.444;2023-07-13T09:41:14;21.70;99.90
31661;DHT22;18267;52.234;7.444;2023-07-13T09:46:34;22.20;99.90
31661;DHT22;18267;52.234;7.444;2023-07-13T09:49:02;22.30;99.90
31661;DHT22;18267;52.234;7.444;2023-07-13T09:51:27;22.20;99.90
31661;DHT22;18267;52.234;7.444;2023-07-13T09:53:53;22.30;99.90
31661;DHT22;18267;52.234;7.444;2023-07-13T09:56:27;22.30;99.90
31661;DHT22;18267;52.234;7.444;2023-07-13T09:58:55;22.30;99.90
31661;DHT22;18267;52.234;7.444;2023-07-13T10:01:37;22.10;99.90
31661;DHT22;18267;52.234;7.444;2023-07-13T10:04:13;22.30;99.90
31661;DHT22;18267;52.234;7.444;2023-07-13T10:06:41;22.40;99.90
31661;DHT22;18267;52.234;7.444;2023-07-13T10:09:21;22.60;99.90
31661;DHT22;18267;52.234;7.444;2023-07-13T10:11:50;22.60;99.90
31661;DHT22;18267;52.234;7.444;2023-07-13T10:14:21;22.50;99.90
31661;DHT22;18267;52.234;7.444;2023-07-13T10:16:50;22.40;99.90
31661;DHT22;18267;52.234;7.444;2023-07-13T10:19:31;22.40;99.90
31661;DHT22;18267;52.234;7.444;2023-07-13T10:24:52;22.10;99.90
31661;DHT22;18267;52.234;7.444;2023-07-13T10:29:59;21.80;99.90
31661;DHT22;18267;52.234;7.444;2023-07-13T10:32:26;21.80;99.90
31661;DHT22;18267;52.234;7.444;2023-07-13T10:34:52;21.80;99.90
31661;DHT22;18267;52.234;7.444;2023-07-13T10:37:24;22.00;99.90
31661;DHT22;18267;52.234;7.444;2023-07-13T10:39:54;22.10;99.90
31661;DHT22;18267;52.234;7.444;2023-07-13T10:42:32;22.20;99.90
31661;DHT22;18267;52.234;7.444;2023-07-13T10:44:59;22.50;99.90
31661;DHT22;18267;52.234;7.444;2023-07-13T10:47:26;22.70;99.90
31661;DHT22;18267;52.234;7.444;2023-07-13T10:49:55;22.70;99.90
31661;DHT22;18267;52.234;7.444;2023-07-13T10:52:42;22.70;99.90
31661;DHT22;18267;52.234;7.444;2023-07-13T10:55:40;22.70;99.90
31661;DHT22;18267;52.234;7.444;2023-07-13T10:58:22;22.70;99.90
31661;DHT22;18267;52.234;7.444;2023-07-13T11:00:53;22.70;99.90
31661;DHT22;18267;52.234;7.444;2023-07-13T11:03:22;22.70;99.90
31661;DHT22;18267;52.234;7.444;2023-07-13T11:06:04;22.80;99.90
31661;DHT22;18267;52.234;7.444;2023-07-13T11:10:57;22.40;99.90
31661;DHT22;18267;52.234;7.444;2023-07-13T11:13:37;22.30;99.90
31661;DHT22;18267;52.234;7.444;2023-07-13T11:18:49;22.20;99.90
31661;DHT22;18267;52.234;7.444;2023-07-13T11:21:18;22.40;99.90
31661;DHT22;18267;52.234;7.444;2023-07-13T11:23:52;22.50;99.90
31661;DHT22;18267;52.234;7.444;2023-07-13T11:31:51;22.90;99.90
31661;DHT22;18267;52.234;7.444;2023-07-13T11:34:28;22.90;99.90
31661;DHT22;18267;52.234;7.444;2023-07-13T11:36:57;22.70;99.90
31661;DHT22;18267;52.234;7.444;2023-07-13T11:41:55;22.80;99.90
31661;DHT22;18267;52.234;7.444;2023-07-13T11:44:25;22.90;99.90
31661;DHT22;18267;52.234;7.444;2023-07-13T11:47:10;22.90;99.90
31661;DHT22;18267;52.234;7.444;2023-07-13T11:49:45;22.80;99.90
31661;DHT22;18267;52.234;7.444;2023-07-13T11:52:16;23.00;99.90
31661;DHT22;18267;52.234;7.444;2023-07-13T11:54:53;23.00;99.90
31661;DHT22;18267;52.234;7.444;2023-07-13T11:57:27;22.90;99.90
31661;DHT22;18267;52.234;7.444;2023-07-13T11:59:55;22.70;99.90
31661;DHT22;18267;52.234;7.444;2023-07-13T12:02:33;22.40;99.90
31661;DHT22;18267;52.234;7.444;2023-07-13T12:05:00;21.80;99.90
31661;DHT22;18267;52.234;7.444;2023-07-13T12:07:30;21.50;99.90
31661;DHT22;18267;52.234;7.444;2023-07-13T12:10:27;21.10;99.90
31661;DHT22;18267;52.234;7.444;2023-07-13T12:15:30;20.90;99.90
31661;DHT22;18267;52.234;7.444;2023-07-13T12:18:00;21.00;99.90
31661;DHT22;18267;52.234;7.444;2023-07-13T12:20:37;20.90;99.90
31661;DHT22;18267;52.234;7.444;2023-07-13T12:23:05;21.00;99.90
31661;DHT22;18267;52.234;7.444;2023-07-13T12:25:31;21.10;99.90
31661;DHT22;18267;52.234;7.444;2023-07-13T12:27:57;21.20;99.90
31661;DHT22;18267;52.234;7.444;2023-07-13T12:30:30;21.30;99.90
31661;DHT22;18267;52.234;7.444;2023-07-13T12:33:01;21.30;99.90
31661;DHT22;18267;52.234;7.444;2023-07-13T12:35:40;21.40;99.90
31661;DHT22;18267;52.234;7.444;2023-07-13T12:38:09;21.60;99.90
31661;DHT22;18267;52.234;7.444;2023-07-13T12:40:36;21.70;99.90
31661;DHT22;18267;52.234;7.444;2023-07-13T12:43:03;21.60;99.90
31661;DHT22;18267;52.234;7.444;2023-07-13T12:45:32;21.80;99.90
31661;DHT22;18267;52.234;7.444;2023-07-13T12:48:06;21.90;99.90
31661;DHT22;18267;52.234;7.444;2023-07-13T12:50:41;22.00;99.90
31661;DHT22;18267;52.234;7.444;2023-07-13T12:53:14;22.00;99.90
31661;DHT22;18267;52.234;7.444;2023-07-13T12:55:48;22.00;99.90
31661;DHT22;18267;52.234;7.444;2023-07-13T12:58:28;21.80;99.90
31661;DHT22;18267;52.234;7.444;2023-07-13T13:01:04;21.30;99.90
31661;DHT22;18267;52.234;7.444;2023-07-13T13:03:46;20.80;99.90
31661;DHT22;18267;52.234;7.444;2023-07-13T13:08:51;20.40;99.90
31661;DHT22;18267;52.234;7.444;2023-07-13T13:11:19;20.50;99.90
31661;DHT22;18267;52.234;7.444;2023-07-13T13:13:45;20.50;99.90
31661;DHT22;18267;52.234;7.444;2023-07-13T13:18:50;20.60;99.90
31661;DHT22;18267;52.234;7.444;2023-07-13T13:21:17;20.80;99.90
31661;DHT22;18267;52.234;7.444;2023-07-13T13:23:42;20.80;99.90
31661;DHT22;18267;52.234;7.444;2023-07-13T13:26:11;20.70;99.90
31661;DHT22;18267;52.234;7.444;2023-07-13T13:28:37;20.60;99.90
31661;DHT22;18267;52.234;7.444;2023-07-13T13:31:03;20.80;99.90
31661;DHT22;18267;52.234;7.444;2023-07-13T13:33:28;20.90;99.90
31661;DHT22;18267;52.234;7.444;2023-07-13T13:35:55;21.10;99.90
31661;DHT22;18267;52.234;7.444;2023-07-13T13:38:26;21.40;99.90
31661;DHT22;18267;52.234;7.444;2023-07-13T13:40:52;21.50;99.90
31661;DHT22;18267;52.234;7.444;2023-07-13T13:43:21;21.50;99.90
31661;DHT22;18267;52.234;7.444;2023-07-13T13:45:47;21.40;99.90
31661;DHT22;18267;52.234;7.444;2023-07-13T13:48:21;21.40;99.90
31661;DHT22;18267;52.234;7.444;2023-07-13T13:50:55;21.20;99.90
31661;DHT22;18267;52.234;7.444;2023-07-13T13:53:22;21.00;99.90
31661;DHT22;18267;52.234;7.444;2023-07-13T13:55:49;21.20;99.90
31661;DHT22;18267;52.234;7.444;2023-07-13T13:58:15;21.30;99.90
31661;DHT22;18267;52.234;7.444;2023-07-13T14:00:41;21.40;99.90
31661;DHT22;18267;52.234;7.444;2023-07-13T14:03:18;21.40;99.90
31661;DHT22;18267;52.234;7.444;2023-07-13T14:05:45;21.30;99.90
31661;DHT22;18267;52.234;7.444;2023-07-13T14:08:27;21.50;99.90
31661;DHT22;18267;52.234;7.444;2023-07-13T14:10:56;21.50;99.90
31661;DHT22;18267;52.234;7.444;2023-07-13T14:13:36;21.40;99.90
31661;DHT22;18267;52.234;7.444;2023-07-13T14:16:16;20.80;99.90
31661;DHT22;18267;52.234;7.444;2023-07-13T14:18:46;20.80;99.90
31661;DHT22;18267;52.234;7.444;2023-07-13T14:21:21;20.90;99.90
31661;DHT22;18267;52.234;7.444;2023-07-13T14:23:47;20.90;99.90
31661;DHT22;18267;52.234;7.444;2023-07-13T14:26:19;21.10;99.90
31661;DHT22;18267;52.234;7.444;2023-07-13T14:28:48;21.10;99.90
31661;DHT22;18267;52.234;7.444;2023-07-13T14:31:15;21.10;99.90
31661;DHT22;18267;52.234;7.444;2023-07-13T14:33:43;20.90;99.90
31661;DHT22;18267;52.234;7.444;2023-07-13T14:36:23;20.90;99.90
31661;DHT22;18267;52.234;7.444;2023-07-13T14:38:50;20.80;99.90
31661;DHT22;18267;52.234;7.444;2023-07-13T14:41:16;20.60;99.90
31661;DHT22;18267;52.234;7.444;2023-07-13T14:43:42;20.70;99.90
31661;DHT22;18267;52.234;7.444;2023-07-13T14:46:18;20.70;99.90
31661;DHT22;18267;52.234;7.444;2023-07-13T14:48:47;20.80;99.90
31661;DHT22;18267;52.234;7.444;2023-07-13T14:51:13;21.00;99.90
31661;DHT22;18267;52.234;7.444;2023-07-13T14:53:39;20.80;99.90
31661;DHT22;18267;52.234;7.444;2023-07-13T14:56:11;20.80;99.90
31661;DHT22;18267;52.234;7.444;2023-07-13T14:58:38;20.90;99.90
31661;DHT22;18267;52.234;7.444;2023-07-13T15:01:12;21.10;99.90
31661;DHT22;18267;52.234;7.444;2023-07-13T15:03:45;21.10;99.90
31661;DHT22;18267;52.234;7.444;2023-07-13T15:06:11;21.40;99.90
31661;DHT22;18267;52.234;7.444;2023-07-13T15:08:37;21.60;99.90
31661;DHT22;18267;52.234;7.444;2023-07-13T15:11:04;21.70;99.90
31661;DHT22;18267;52.234;7.444;2023-07-13T15:13:30;21.80;99.90
31661;DHT22;18267;52.234;7.444;2023-07-13T15:15:56;22.00;99.90
31661;DHT22;18267;52.234;7.444;2023-07-13T15:18:23;21.90;99.90
31661;DHT22;18267;52.234;7.444;2023-07-13T15:20:51;21.90;99.90
31661;DHT22;18267;52.234;7.444;2023-07-13T15:23:22;21.90;99.90
31661;DHT22;18267;52.234;7.444;2023-07-13T15:25:48;22.00;99.90
31661;DHT22;18267;52.234;7.444;2023-07-13T15:28:14;22.00;99.90
31661;DHT22;18267;52.234;7.444;2023-07-13T15:30:48;22.30;99.90
31661;DHT22;18267;52.234;7.444;2023-07-13T15:33:30;22.40;99.90
31661;DHT22;18267;52.234;7.444;2023-07-13T15:35:56;22.40;99.90
31661;DHT22;18267;52.234;7.444;2023-07-13T15:38:27;22.40;99.90
31661;DHT22;18267;52.234;7.444;2023-07-13T15:40:53;22.40;99.90
31661;DHT22;18267;52.234;7.444;2023-07-13T15:43:20;22.20;99.90
31661;DHT22;18267;52.234;7.444;2023-07-13T15:45:47;22.00;99.90
31661;DHT22;18267;52.234;7.444;2023-07-13T15:48:18;21.80;99.90
31661;DHT22;18267;52.234;7.444;2023-07-13T15:50:47;21.70;99.90
31661;DHT22;18267;52.234;7.444;2023-07-13T15:53:24;21.50;99.90
31661;DHT22;18267;52.234;7.444;2023-07-13T15:55:51;21.50;99.90
31661;DHT22;18267;52.234;7.444;2023-07-13T15:58:18;21.50;99.90
31661;DHT22;18267;52.234;7.444;2023-07-13T16:00:44;21.60;99.90
31661;DHT22;18267;52.234;7.444;2023-07-13T16:03:10;21.50;99.90
31661;DHT22;18267;52.234;7.444;2023-07-13T16:05:36;21.50;99.90
31661;DHT22;18267;52.234;7.444;2023-07-13T16:08:04;21.40;99.90
31661;DHT22;18267;52.234;7.444;2023-07-13T16:10:34;21.40;99.90
31661;DHT22;18267;52.234;7.444;2023-07-13T16:13:14;21.40;99.90
31661;DHT22;18267;52.234;7.444;2023-07-13T16:15:40;21.40;99.90